createdAt,value
2022-09-11T00:01:40.561Z,21.70
2022-09-11T00:04:10.346Z,21.80
2022-09-11T00:06:38.818Z,26.20
2022-09-11T00:09:07.786Z,22.60
2022-09-11T00:11:41.439Z,18.70
2022-09-11T00:14:12.312Z,14.70
2022-09-11T00:16:44.936Z,19.00
2022-09-11T00:19:19.348Z,16.40
2022-09-11T00:21:50.062Z,18.10
2022-09-11T00:24:18.111Z,15.80
2022-09-11T00:26:47.932Z,14.60
2022-09-11T00:29:15.768Z,15.40
2022-09-11T00:31:43.587Z,17.60
2022-09-11T00:34:11.524Z,17.50
2022-09-11T00:36:41.678Z,33.00
2022-09-11T00:39:12.332Z,33.70
2022-09-11T00:41:44.890Z,24.30
2022-09-11T00:46:43.735Z,26.30
2022-09-11T00:49:54.466Z,26.70
2022-09-11T00:52:29.374Z,20.30
2022-09-11T00:55:15.072Z,17.90
2022-09-11T00:57:51.779Z,17.00
2022-09-11T01:00:20.972Z,15.70
2022-09-11T01:02:51.633Z,13.20
2022-09-11T01:05:20.043Z,14.70
2022-09-11T01:07:50.329Z,13.30
2022-09-11T01:10:19.014Z,16.40
2022-09-11T01:13:17.692Z,17.20
2022-09-11T01:16:13.692Z,15.40
2022-09-11T01:19:10.437Z,16.70
2022-09-11T01:22:07.685Z,16.10
2022-09-11T01:25:17.510Z,14.70
2022-09-11T01:27:57.566Z,12.50
2022-09-11T01:30:37.633Z,14.50
2022-09-11T01:33:31.291Z,17.10
2022-09-11T01:36:22.896Z,13.70
2022-09-11T01:38:58.428Z,19.80
2022-09-11T01:41:46.991Z,12.70
2022-09-11T01:44:30.508Z,13.50
2022-09-11T01:46:58.780Z,13.20
2022-09-11T01:49:38.956Z,13.40
2022-09-11T01:52:12.983Z,14.20
2022-09-11T01:54:56.545Z,12.70
2022-09-11T01:57:35.741Z,12.30
2022-09-11T02:00:09.449Z,14.60
2022-09-11T02:02:45.290Z,10.50
2022-09-11T02:05:23.230Z,12.10
2022-09-11T02:08:06.706Z,14.60
2022-09-11T02:10:45.527Z,13.80
2022-09-11T02:13:24.048Z,10.50
2022-09-11T02:16:03.937Z,10.40
2022-09-11T02:19:04.391Z,12.20
2022-09-11T02:21:33.423Z,13.60
2022-09-11T02:24:02.323Z,11.00
2022-09-11T02:26:34.000Z,12.80
2022-09-11T02:29:01.916Z,13.60
2022-09-11T02:31:29.830Z,13.60
2022-09-11T02:33:57.981Z,15.40
2022-09-11T02:36:31.802Z,12.50
2022-09-11T02:39:35.418Z,15.90
2022-09-11T02:42:10.705Z,17.10
2022-09-11T02:45:29.162Z,16.00
2022-09-11T02:48:36.371Z,14.90
2022-09-11T02:51:18.106Z,16.00
2022-09-11T02:54:10.816Z,13.90
2022-09-11T02:56:50.979Z,17.70
2022-09-11T02:59:32.484Z,15.40
2022-09-11T03:02:02.306Z,16.00
2022-09-11T03:04:31.450Z,17.80
2022-09-11T03:06:59.666Z,17.70
2022-09-11T03:09:27.513Z,20.50
2022-09-11T03:11:55.667Z,18.60
2022-09-11T03:14:23.549Z,20.00
2022-09-11T03:16:51.197Z,16.50
2022-09-11T03:19:18.986Z,20.90
2022-09-11T03:21:46.789Z,18.00
2022-09-11T03:24:14.550Z,21.90
2022-09-11T03:26:42.277Z,19.30
2022-09-11T03:29:10.047Z,22.10
2022-09-11T03:31:39.444Z,22.30
2022-09-11T03:34:07.551Z,22.50
2022-09-11T03:36:35.391Z,20.40
2022-09-11T03:39:04.192Z,24.30
2022-09-11T03:41:32.728Z,21.20
2022-09-11T03:44:00.556Z,22.30
2022-09-11T03:46:28.280Z,27.60
2022-09-11T03:48:56.085Z,23.30
2022-09-11T03:51:23.849Z,23.00
2022-09-11T03:53:51.502Z,23.60
2022-09-11T03:56:19.238Z,20.90
2022-09-11T03:58:48.182Z,20.80
2022-09-11T04:01:19.045Z,22.30
2022-09-11T04:03:46.983Z,24.20
2022-09-11T04:06:14.796Z,26.00
2022-09-11T04:08:42.703Z,26.20
2022-09-11T04:11:11.759Z,28.20
2022-09-11T04:13:42.298Z,29.00
2022-09-11T04:16:17.225Z,24.30
2022-09-11T04:18:49.651Z,26.10
2022-09-11T04:21:18.832Z,25.40
2022-09-11T04:23:53.437Z,24.20
2022-09-11T04:26:25.004Z,27.90
2022-09-11T04:28:53.087Z,29.00
2022-09-11T04:31:22.645Z,26.80
2022-09-11T04:33:50.507Z,28.40
2022-09-11T04:36:19.698Z,29.50
2022-09-11T04:38:48.956Z,28.50
2022-09-11T04:41:16.855Z,27.70
2022-09-11T04:43:45.211Z,26.60
2022-09-11T04:46:16.373Z,26.90
2022-09-11T04:48:49.333Z,30.00
2022-09-11T04:51:43.628Z,26.60
2022-09-11T04:54:18.007Z,25.90
2022-09-11T04:56:45.697Z,33.10
2022-09-11T04:59:18.110Z,32.70
2022-09-11T05:01:46.853Z,31.10
2022-09-11T05:04:16.610Z,30.00
2022-09-11T05:06:48.317Z,25.60
2022-09-11T05:09:17.875Z,29.30
2022-09-11T05:11:48.863Z,29.30
2022-09-11T05:14:18.543Z,32.00
2022-09-11T05:16:46.413Z,27.80
2022-09-11T05:19:14.222Z,22.50
2022-09-11T05:21:42.483Z,27.30
2022-09-11T05:24:10.299Z,27.30
2022-09-11T05:26:38.263Z,27.10
2022-09-11T05:29:10.999Z,28.80
2022-09-11T05:31:39.528Z,25.10
2022-09-11T05:34:07.800Z,30.00
2022-09-11T05:36:35.995Z,26.20
2022-09-11T05:39:04.532Z,28.10
2022-09-11T05:41:32.367Z,27.60
2022-09-11T05:44:00.213Z,24.90
2022-09-11T05:46:28.507Z,26.50
2022-09-11T05:48:56.213Z,26.00
2022-09-11T05:51:24.104Z,27.60
2022-09-11T05:53:56.770Z,25.60
2022-09-11T05:56:25.891Z,31.50
2022-09-11T05:58:54.003Z,24.10
2022-09-11T06:01:27.629Z,24.50
2022-09-11T06:03:56.736Z,23.90
2022-09-11T06:06:27.009Z,23.80
2022-09-11T06:08:56.112Z,25.30
2022-09-11T06:11:24.070Z,22.40
2022-09-11T06:13:51.965Z,25.10
2022-09-11T06:16:22.442Z,23.70
2022-09-11T06:18:52.204Z,23.40
2022-09-11T06:21:24.022Z,26.40
2022-09-11T06:23:53.189Z,24.70
2022-09-11T06:26:24.959Z,21.00
2022-09-11T06:28:54.114Z,20.10
2022-09-11T06:31:25.638Z,21.90
2022-09-11T06:33:54.071Z,20.00
2022-09-11T06:36:26.668Z,19.30
2022-09-11T06:41:24.709Z,17.40
2022-09-11T06:43:52.823Z,16.80
2022-09-11T06:46:23.547Z,14.80
2022-09-11T06:48:52.292Z,15.70
2022-09-11T06:51:22.556Z,18.70
2022-09-11T06:53:56.331Z,14.80
2022-09-11T06:56:25.054Z,13.20
2022-09-11T06:58:53.025Z,13.20
2022-09-11T07:01:22.342Z,16.30
2022-09-11T07:03:53.517Z,14.40
2022-09-11T07:06:24.956Z,13.10
2022-09-11T07:09:03.657Z,14.30
2022-09-11T07:11:34.513Z,12.70
2022-09-11T07:14:10.727Z,15.40
2022-09-11T07:16:38.799Z,11.70
2022-09-11T07:19:09.614Z,11.50
2022-09-11T07:21:37.392Z,10.70
2022-09-11T07:24:05.476Z,10.90
2022-09-11T07:26:33.204Z,11.10
2022-09-11T07:29:00.985Z,9.70
2022-09-11T07:31:33.185Z,12.80
2022-09-11T07:34:02.859Z,10.80
2022-09-11T07:36:34.472Z,11.10
2022-09-11T07:39:03.640Z,12.40
2022-09-11T07:41:32.150Z,11.80
2022-09-11T07:44:00.345Z,11.90
2022-09-11T07:46:31.370Z,11.10
2022-09-11T07:49:02.192Z,11.50
2022-09-11T07:51:30.071Z,14.10
2022-09-11T07:53:59.531Z,11.80
2022-09-11T07:56:27.723Z,13.80
2022-09-11T07:58:56.098Z,9.30
2022-09-11T08:01:29.990Z,8.30
2022-09-11T08:04:00.962Z,8.50
2022-09-11T08:06:32.176Z,9.00
2022-09-11T08:09:03.189Z,16.30
2022-09-11T08:11:34.892Z,9.00
2022-09-11T08:14:02.933Z,9.90
2022-09-11T08:16:31.512Z,9.70
2022-09-11T08:18:59.418Z,8.60
2022-09-11T08:21:28.003Z,10.90
2022-09-11T08:23:56.241Z,8.80
2022-09-11T08:26:27.495Z,8.00
2022-09-11T08:28:59.989Z,10.80
2022-09-11T08:31:28.990Z,7.80
2022-09-11T08:33:57.238Z,9.90
2022-09-11T08:36:25.812Z,7.40
2022-09-11T08:38:54.345Z,11.10
2022-09-11T08:41:37.468Z,10.60
2022-09-11T08:44:11.125Z,9.80
2022-09-11T08:46:48.008Z,37.50
2022-09-11T08:49:39.616Z,11.00
2022-09-11T08:52:15.625Z,7.80
2022-09-11T08:54:44.141Z,8.40
2022-09-11T08:57:43.615Z,7.60
2022-09-11T09:00:22.433Z,7.00
2022-09-11T09:03:30.561Z,10.30
2022-09-11T09:06:12.604Z,7.30
2022-09-11T09:08:54.946Z,7.00
2022-09-11T09:11:36.187Z,6.70
2022-09-11T09:14:29.377Z,8.50
2022-09-11T09:17:08.497Z,10.00
2022-09-11T09:19:46.637Z,6.70
2022-09-11T09:22:37.768Z,8.80
2022-09-11T09:25:13.012Z,7.80
2022-09-11T09:27:47.272Z,8.20
2022-09-11T09:30:27.394Z,8.10
2022-09-11T09:33:13.074Z,7.10
2022-09-11T09:35:46.186Z,6.70
2022-09-11T09:38:18.712Z,10.30
2022-09-11T09:43:44.355Z,6.10
2022-09-11T09:46:48.741Z,6.80
2022-09-11T09:49:27.414Z,5.90
2022-09-11T09:52:04.230Z,6.00
2022-09-11T09:54:45.300Z,5.00
2022-09-11T09:57:24.764Z,4.70
2022-09-11T10:00:19.877Z,5.20
2022-09-11T10:02:57.490Z,2.20
2022-09-11T10:05:44.643Z,2.40
2022-09-11T10:08:34.069Z,5.30
2022-09-11T10:11:12.266Z,2.60
2022-09-11T10:13:43.298Z,3.70
2022-09-11T10:16:26.043Z,3.40
2022-09-11T10:18:55.968Z,3.10
2022-09-11T10:21:35.880Z,2.70
2022-09-11T10:24:25.355Z,2.30
2022-09-11T10:26:55.894Z,2.90
2022-09-11T10:29:30.163Z,3.10
2022-09-11T10:32:36.180Z,3.40
2022-09-11T10:35:09.779Z,6.00
2022-09-11T10:37:39.216Z,4.80
2022-09-11T10:40:21.029Z,4.80
2022-09-11T10:42:50.417Z,2.90
2022-09-11T10:45:21.935Z,2.80
2022-09-11T10:47:49.982Z,4.00
2022-09-11T10:50:17.945Z,2.80
2022-09-11T10:53:03.634Z,3.10
2022-09-11T10:55:39.175Z,2.20
2022-09-11T10:58:32.707Z,4.50
2022-09-11T11:01:01.538Z,2.40
2022-09-11T11:03:29.727Z,4.40
2022-09-11T11:06:44.199Z,4.30
2022-09-11T11:10:08.774Z,4.60
2022-09-11T11:13:29.974Z,4.80
2022-09-11T11:16:21.279Z,7.20
2022-09-11T11:19:31.068Z,4.90
2022-09-11T11:22:19.203Z,5.90
2022-09-11T11:25:17.632Z,7.20
2022-09-11T11:28:32.128Z,7.30
2022-09-11T11:31:23.683Z,5.30
2022-09-11T11:34:04.113Z,8.90
2022-09-11T11:37:10.949Z,4.90
2022-09-11T11:39:50.808Z,6.00
2022-09-11T11:43:00.021Z,6.10
2022-09-11T11:45:46.171Z,7.60
2022-09-11T11:48:44.756Z,5.60
2022-09-11T11:51:18.543Z,5.90
2022-09-11T11:54:22.011Z,7.70
2022-09-11T11:56:57.856Z,6.50
2022-09-11T11:59:36.925Z,6.00
2022-09-11T12:02:09.808Z,5.50
2022-09-11T12:04:55.932Z,5.60
2022-09-11T12:07:31.177Z,5.30
2022-09-11T12:10:02.130Z,9.40
2022-09-11T12:12:53.005Z,6.20
2022-09-11T12:15:23.998Z,5.90
2022-09-11T12:18:16.221Z,6.70
2022-09-11T12:20:46.083Z,5.30
2022-09-11T12:23:34.111Z,5.70
2022-09-11T12:26:23.356Z,5.40
2022-09-11T12:29:11.859Z,6.50
2022-09-11T12:31:51.633Z,4.90
2022-09-11T12:34:27.136Z,5.20
2022-09-11T12:37:05.352Z,8.40
2022-09-11T12:39:48.263Z,4.20
2022-09-11T12:42:25.549Z,5.00
2022-09-11T12:44:55.273Z,6.60
2022-09-11T12:47:41.234Z,6.50
2022-09-11T12:50:19.267Z,5.80
2022-09-11T12:52:57.802Z,6.20
2022-09-11T12:55:40.125Z,6.90
2022-09-11T12:58:20.417Z,6.80
2022-09-11T13:00:51.077Z,6.20
2022-09-11T13:03:34.392Z,6.00
2022-09-11T13:06:07.700Z,7.40
2022-09-11T13:08:47.790Z,5.20
2022-09-11T13:11:38.104Z,10.50
2022-09-11T13:14:29.236Z,9.10
2022-09-11T13:17:02.712Z,7.30
2022-09-11T13:19:37.760Z,5.90
2022-09-11T13:22:27.940Z,6.40
2022-09-11T13:25:20.632Z,6.60
2022-09-11T13:27:54.782Z,6.00
2022-09-11T13:30:24.839Z,9.10
2022-09-11T13:33:14.621Z,8.20
2022-09-11T13:35:45.389Z,7.60
2022-09-11T13:41:01.030Z,8.30
2022-09-11T13:43:36.087Z,8.20
2022-09-11T13:46:16.223Z,6.60
2022-09-11T13:48:46.634Z,8.60
2022-09-11T13:51:20.959Z,6.80
2022-09-11T13:54:11.811Z,6.70
2022-09-11T13:57:10.679Z,8.40
2022-09-11T13:59:47.680Z,5.50
2022-09-11T14:02:33.708Z,5.90
2022-09-11T14:05:07.488Z,7.70
2022-09-11T14:08:04.967Z,6.70
2022-09-11T14:10:47.254Z,7.10
2022-09-11T14:13:36.465Z,5.60
2022-09-11T14:16:16.322Z,8.20
2022-09-11T14:18:59.782Z,6.20
2022-09-11T14:21:36.966Z,6.10
2022-09-11T14:24:22.363Z,8.60
2022-09-11T14:26:50.792Z,4.80
2022-09-11T14:29:28.647Z,15.90
2022-09-11T14:32:28.234Z,6.60
2022-09-11T14:34:56.483Z,5.20
2022-09-11T14:37:26.532Z,5.60
2022-09-11T14:40:31.692Z,5.20
2022-09-11T14:43:03.009Z,6.60
2022-09-11T14:50:05.653Z,7.20
2022-09-11T14:55:18.790Z,6.50
2022-09-11T14:57:47.535Z,5.30
2022-09-11T15:00:19.098Z,5.50
2022-09-11T15:02:52.265Z,4.90
2022-09-11T15:05:24.708Z,6.60
2022-09-11T15:07:53.170Z,5.30
2022-09-11T15:10:21.203Z,4.90
2022-09-11T15:12:49.252Z,6.00
2022-09-11T15:15:17.798Z,5.50
2022-09-11T15:17:46.373Z,4.50
2022-09-11T15:20:14.244Z,7.00
2022-09-11T15:22:42.085Z,6.10
2022-09-11T15:25:10.252Z,5.30
2022-09-11T15:27:41.391Z,5.10
2022-09-11T15:30:10.246Z,7.30
2022-09-11T15:32:38.514Z,6.10
2022-09-11T15:35:08.057Z,5.70
2022-09-11T15:37:36.042Z,4.80
2022-09-11T15:40:04.648Z,4.90
2022-09-11T15:42:39.520Z,4.50
2022-09-11T15:45:09.163Z,4.10
2022-09-11T15:47:37.174Z,3.90
2022-09-11T15:50:06.323Z,4.20
2022-09-11T15:52:36.654Z,3.90
2022-09-11T15:55:07.897Z,3.90
2022-09-11T15:57:36.888Z,3.60
2022-09-11T16:00:05.289Z,4.40
2022-09-11T16:02:33.128Z,5.10
2022-09-11T16:05:01.773Z,5.10
2022-09-11T16:07:30.673Z,4.90
2022-09-11T16:13:14.803Z,3.70
2022-09-11T16:16:12.095Z,5.50
2022-09-11T16:18:42.875Z,5.90
2022-09-11T16:21:36.016Z,3.70
2022-09-11T16:24:08.030Z,5.10
2022-09-11T16:26:38.386Z,4.80
2022-09-11T16:29:12.399Z,5.30
2022-09-11T16:31:40.310Z,7.50
2022-09-11T16:34:11.848Z,5.60
2022-09-11T16:36:48.920Z,5.10
2022-09-11T16:39:25.232Z,4.40
2022-09-11T16:42:18.957Z,4.00
2022-09-11T16:45:40.753Z,4.10
2022-09-11T16:53:19.377Z,7.50
2022-09-11T16:56:27.677Z,4.20
2022-09-11T16:59:44.422Z,4.90
2022-09-11T17:02:12.319Z,6.50
2022-09-11T17:04:40.128Z,8.10
2022-09-11T17:07:07.907Z,9.60
2022-09-11T17:09:35.668Z,7.80
2022-09-11T17:12:03.787Z,5.20
2022-09-11T17:14:32.760Z,5.10
2022-09-11T17:17:03.281Z,6.00
2022-09-11T17:19:38.905Z,7.50
2022-09-11T17:22:09.001Z,5.70
2022-09-11T17:25:38.345Z,5.40
2022-09-11T17:29:01.638Z,4.70
2022-09-11T17:31:44.712Z,7.70
2022-09-11T17:34:16.402Z,3.90
2022-09-11T17:36:51.727Z,5.50
2022-09-11T17:39:19.960Z,5.80
2022-09-11T17:41:51.678Z,5.50
2022-09-11T17:44:27.748Z,5.90
2022-09-11T17:47:01.069Z,4.60
2022-09-11T17:49:32.383Z,7.90
2022-09-11T17:52:01.060Z,5.70
2022-09-11T17:54:29.084Z,7.30
2022-09-11T17:56:59.688Z,8.20
2022-09-11T17:59:32.120Z,7.70
2022-09-11T18:02:03.609Z,6.10
2022-09-11T18:04:34.756Z,7.40
2022-09-11T18:07:04.998Z,7.00
2022-09-11T18:09:33.351Z,5.90
2022-09-11T18:12:05.144Z,7.20
2022-09-11T18:14:38.259Z,5.40
2022-09-11T18:17:06.972Z,6.60
2022-09-11T18:19:36.842Z,5.80
2022-09-11T18:22:09.832Z,8.40
2022-09-11T18:24:41.684Z,7.00
2022-09-11T18:28:05.450Z,5.30
2022-09-11T18:31:02.933Z,6.40
2022-09-11T18:33:51.424Z,7.50
2022-09-11T18:36:34.320Z,6.30
2022-09-11T18:39:04.246Z,6.60
2022-09-11T18:41:35.610Z,6.40
2022-09-11T18:44:36.991Z,6.40
2022-09-11T18:47:08.806Z,7.30
2022-09-11T18:49:47.148Z,6.00
2022-09-11T18:52:21.627Z,9.10
2022-09-11T18:55:06.610Z,6.00
2022-09-11T18:57:40.136Z,8.20
2022-09-11T19:00:21.177Z,7.90
2022-09-11T19:02:59.685Z,7.70
2022-09-11T19:05:29.480Z,7.80
2022-09-11T19:08:00.207Z,4.90
2022-09-11T19:10:32.250Z,6.50
2022-09-11T19:13:02.937Z,5.50
2022-09-11T19:15:31.553Z,5.20
2022-09-11T19:18:08.583Z,6.80
2022-09-11T19:20:39.843Z,6.10
2022-09-11T19:23:09.473Z,7.30
2022-09-11T19:25:40.749Z,6.10
2022-09-11T19:28:08.872Z,6.50
2022-09-11T19:30:41.225Z,10.40
2022-09-11T19:33:11.921Z,5.90
2022-09-11T19:36:03.838Z,5.90
2022-09-11T19:38:37.250Z,5.30
2022-09-11T19:41:14.353Z,5.70
2022-09-11T19:44:02.014Z,6.00
2022-09-11T19:46:41.413Z,5.40
2022-09-11T19:49:11.336Z,6.50
2022-09-11T19:51:42.816Z,6.70
2022-09-11T19:54:15.954Z,6.60
2022-09-11T19:56:45.296Z,8.10
2022-09-11T19:59:16.414Z,6.70
2022-09-11T20:01:45.271Z,8.20
2022-09-11T20:04:15.656Z,6.50
2022-09-11T20:09:31.393Z,9.70
2022-09-11T20:12:01.397Z,7.80
2022-09-11T20:14:31.173Z,7.50
2022-09-11T20:17:01.125Z,7.00
2022-09-11T20:19:28.989Z,5.40
2022-09-11T20:21:57.027Z,6.70
2022-09-11T20:24:24.825Z,8.00
2022-09-11T20:26:53.826Z,5.70
2022-09-11T20:29:21.704Z,5.90
2022-09-11T20:31:51.230Z,5.40
2022-09-11T20:34:20.280Z,7.20
2022-09-11T20:36:48.377Z,6.80
2022-09-11T20:39:16.826Z,7.20
2022-09-11T20:41:44.823Z,4.50
2022-09-11T20:44:12.735Z,6.90
2022-09-11T20:46:41.317Z,5.40
2022-09-11T20:49:10.885Z,7.50
2022-09-11T20:51:43.256Z,6.80
2022-09-11T20:54:14.578Z,7.90
2022-09-11T20:56:44.649Z,6.60
2022-09-11T20:59:12.733Z,7.40
2022-09-11T21:01:40.489Z,5.10
2022-09-11T21:04:08.226Z,6.90
2022-09-11T21:06:36.005Z,9.40
2022-09-11T21:09:09.866Z,5.10
2022-09-11T21:11:40.372Z,6.40
2022-09-11T21:14:15.073Z,5.40
2022-09-11T21:16:43.126Z,6.20
2022-09-11T21:19:11.032Z,7.70
2022-09-11T21:21:42.541Z,7.70
2022-09-11T21:24:13.000Z,7.80
2022-09-11T21:26:42.450Z,7.80
2022-09-11T21:29:12.930Z,7.00
2022-09-11T21:31:42.471Z,6.50
2022-09-11T21:34:10.799Z,5.20
2022-09-11T21:36:38.656Z,7.30
2022-09-11T21:39:06.556Z,7.80
2022-09-11T21:41:34.678Z,6.00
2022-09-11T21:44:02.873Z,6.80
2022-09-11T21:46:30.561Z,6.40
2022-09-11T21:48:58.209Z,6.10
2022-09-11T21:51:25.937Z,11.60
2022-09-11T21:53:59.067Z,7.10
2022-09-11T21:56:32.274Z,4.90
2022-09-11T21:59:00.667Z,9.70
2022-09-11T22:01:29.858Z,6.60
2022-09-11T22:03:58.609Z,5.20
2022-09-11T22:06:27.025Z,5.70
2022-09-11T22:08:56.293Z,9.40
2022-09-11T22:11:26.011Z,9.90
2022-09-11T22:13:54.252Z,5.90
2022-09-11T22:16:23.120Z,4.90
2022-09-11T22:18:53.510Z,4.90
2022-09-11T22:21:21.372Z,7.70
2022-09-11T22:23:49.677Z,7.80
2022-09-11T22:26:20.058Z,6.00
2022-09-11T22:28:48.094Z,7.40
2022-09-11T22:31:20.822Z,5.00
2022-09-11T22:33:48.861Z,6.80
2022-09-11T22:36:26.266Z,6.10
2022-09-11T22:38:55.066Z,5.90
2022-09-11T22:41:23.474Z,5.80
2022-09-11T22:43:51.438Z,6.40
2022-09-11T22:46:20.950Z,6.30
2022-09-11T22:48:49.159Z,6.90
2022-09-11T22:51:17.130Z,7.00
2022-09-11T22:53:45.096Z,7.00
2022-09-11T22:56:13.959Z,7.20
2022-09-11T22:58:42.294Z,7.80
2022-09-11T23:01:14.116Z,7.40
2022-09-11T23:03:42.198Z,7.60
2022-09-11T23:06:29.896Z,5.90
2022-09-11T23:08:57.712Z,13.20
2022-09-11T23:11:25.814Z,8.90
2022-09-11T23:13:53.521Z,8.00
2022-09-11T23:16:24.291Z,7.50
2022-09-11T23:19:03.232Z,7.00
2022-09-11T23:21:35.702Z,7.30
2022-09-11T23:24:06.157Z,6.80
2022-09-11T23:26:34.026Z,6.70
2022-09-11T23:29:01.815Z,7.80
2022-09-11T23:31:32.524Z,9.60
2022-09-11T23:34:08.719Z,6.30
2022-09-11T23:36:36.788Z,6.20
2022-09-11T23:39:04.702Z,8.30
2022-09-11T23:41:32.624Z,8.20
2022-09-11T23:44:00.357Z,6.20
2022-09-11T23:46:28.656Z,10.00
2022-09-11T23:48:56.525Z,8.40
2022-09-11T23:51:24.197Z,7.60
2022-09-11T23:53:52.029Z,6.40
2022-09-11T23:56:22.365Z,9.70
2022-09-11T23:58:50.957Z,6.80
